createdAt,value
2019-05-20T00:00:09.796Z,21.33
2019-05-20T00:02:38.998Z,24.23
2019-05-20T00:05:08.259Z,22.23
2019-05-20T00:07:37.444Z,22.67
2019-05-20T00:10:08.275Z,22.57
2019-05-20T00:12:37.462Z,22.80
2019-05-20T00:15:06.797Z,24.53
2019-05-20T00:17:36.000Z,27.80
2019-05-20T00:20:09.006Z,25.73
2019-05-20T00:22:38.196Z,29.63
2019-05-20T00:25:07.517Z,25.87
2019-05-20T00:27:36.712Z,26.13
2019-05-20T00:30:07.040Z,29.93
2019-05-20T00:32:41.021Z,29.13
2019-05-20T00:35:10.768Z,29.83
2019-05-20T00:37:39.958Z,28.10
2019-05-20T00:40:09.377Z,26.83
2019-05-20T00:42:38.566Z,27.23
2019-05-20T00:45:08.418Z,26.80
2019-05-20T00:47:37.598Z,23.97
2019-05-20T00:50:07.323Z,25.63
2019-05-20T00:52:36.586Z,22.40
2019-05-20T00:55:07.985Z,25.03
2019-05-20T00:57:37.456Z,22.60
2019-05-20T01:00:08.205Z,22.03
2019-05-20T01:02:37.379Z,23.67
2019-05-20T01:05:06.851Z,22.90
2019-05-20T01:07:36.013Z,21.53
2019-05-20T01:10:08.449Z,25.47
2019-05-20T01:12:37.625Z,24.33
2019-05-20T01:15:06.953Z,22.83
2019-05-20T01:17:36.153Z,25.10
2019-05-20T01:20:06.972Z,27.43
2019-05-20T01:22:36.166Z,27.13
2019-05-20T01:25:06.972Z,23.87
2019-05-20T01:27:36.159Z,25.13
2019-05-20T01:30:10.027Z,23.97
2019-05-20T01:32:39.201Z,25.17
2019-05-20T01:35:08.739Z,25.40
2019-05-20T01:37:37.917Z,28.30
2019-05-20T01:40:07.695Z,26.20
2019-05-20T01:42:36.889Z,27.83
2019-05-20T01:45:06.606Z,25.27
2019-05-20T01:47:35.813Z,25.83
2019-05-20T01:50:06.603Z,30.53
2019-05-20T01:52:35.825Z,25.63
2019-05-20T01:55:09.952Z,28.67
2019-05-20T01:57:39.153Z,29.40
2019-05-20T02:00:09.285Z,27.97
2019-05-20T02:02:38.460Z,27.07
2019-05-20T02:05:08.827Z,28.10
2019-05-20T02:07:38.102Z,27.90
2019-05-20T02:10:08.307Z,33.30
2019-05-20T02:12:37.497Z,28.80
2019-05-20T02:15:10.147Z,28.10
2019-05-20T02:17:39.367Z,31.23
2019-05-20T02:20:09.200Z,31.43
2019-05-20T02:22:38.389Z,34.17
2019-05-20T02:25:07.835Z,29.30
2019-05-20T02:27:37.039Z,32.03
2019-05-20T02:30:11.085Z,29.47
2019-05-20T02:32:40.272Z,30.20
2019-05-20T02:35:10.214Z,29.57
2019-05-20T02:37:39.420Z,27.33
2019-05-20T02:40:09.446Z,26.67
2019-05-20T02:42:38.667Z,29.80
2019-05-20T02:45:08.494Z,31.63
2019-05-20T02:47:37.686Z,28.30
2019-05-20T02:50:07.023Z,28.37
2019-05-20T02:52:36.235Z,26.77
2019-05-20T02:55:07.239Z,28.03
2019-05-20T02:57:36.410Z,25.67
2019-05-20T03:00:08.503Z,28.53
2019-05-20T03:02:37.771Z,28.37
2019-05-20T03:05:07.259Z,27.90
2019-05-20T03:07:36.503Z,26.17
2019-05-20T03:10:08.739Z,27.90
2019-05-20T03:12:37.942Z,27.73
2019-05-20T03:15:07.465Z,31.17
2019-05-20T03:17:36.681Z,28.57
2019-05-20T03:20:06.441Z,26.53
2019-05-20T03:22:35.660Z,34.30
2019-05-20T03:25:07.199Z,27.13
2019-05-20T03:27:36.462Z,29.83
2019-05-20T03:30:07.412Z,32.03
2019-05-20T03:32:36.656Z,28.93
2019-05-20T03:35:07.587Z,27.40
2019-05-20T03:37:36.818Z,28.13
2019-05-20T03:40:07.450Z,28.03
2019-05-20T03:42:36.639Z,29.73
2019-05-20T03:45:06.381Z,32.53
2019-05-20T03:47:35.572Z,26.17
2019-05-20T03:50:06.887Z,25.20
2019-05-20T03:52:36.074Z,31.20
2019-05-20T03:55:07.546Z,27.13
2019-05-20T03:57:36.892Z,24.50
2019-05-20T04:00:07.182Z,23.90
2019-05-20T04:02:36.365Z,26.77
2019-05-20T04:05:06.119Z,26.87
2019-05-20T04:07:35.320Z,26.93
2019-05-20T04:10:06.271Z,25.03
2019-05-20T04:12:35.439Z,26.00
2019-05-20T04:15:05.561Z,26.13
2019-05-20T04:17:34.737Z,24.13
2019-05-20T04:20:05.312Z,24.77
2019-05-20T04:22:34.454Z,25.40
2019-05-20T04:25:04.809Z,21.90
2019-05-20T04:27:33.893Z,23.57
2019-05-20T04:30:03.086Z,22.20
2019-05-20T04:32:32.301Z,20.67
2019-05-20T04:35:19.897Z,20.67
2019-05-20T04:37:38.455Z,17.80
2019-05-20T04:40:10.190Z,22.67
2019-05-20T04:42:39.385Z,20.27
2019-05-20T04:45:08.908Z,20.57
2019-05-20T04:47:38.110Z,20.20
2019-05-20T04:50:09.142Z,23.60
2019-05-20T04:52:38.348Z,20.97
2019-05-20T04:55:08.056Z,24.10
2019-05-20T04:57:37.255Z,26.37
2019-05-20T05:00:08.364Z,22.30
2019-05-20T05:02:37.685Z,24.63
2019-05-20T05:05:07.640Z,25.83
2019-05-20T05:07:36.893Z,22.97
2019-05-20T05:10:08.448Z,29.57
2019-05-20T05:12:37.601Z,27.80
2019-05-20T05:15:08.836Z,28.30
2019-05-20T05:17:38.465Z,30.07
2019-05-20T05:20:16.925Z,28.83
2019-05-20T05:22:39.046Z,26.83
2019-05-20T05:25:26.453Z,26.10
2019-05-20T05:28:13.886Z,26.93
2019-05-20T05:30:45.622Z,27.63
2019-05-20T05:33:14.824Z,25.17
2019-05-20T05:35:52.802Z,28.70
2019-05-20T05:38:15.212Z,29.60
2019-05-20T05:40:44.426Z,30.30
2019-05-20T05:43:13.644Z,27.73
2019-05-20T05:45:42.828Z,23.60
2019-05-20T05:48:12.040Z,26.53
2019-05-20T05:50:41.238Z,23.07
2019-05-20T05:53:10.424Z,25.67
2019-05-20T05:55:39.699Z,25.13
2019-05-20T05:58:09.139Z,28.07
2019-05-20T06:00:38.381Z,27.97
2019-05-20T06:03:07.558Z,27.77
2019-05-20T06:05:36.750Z,27.67
2019-05-20T06:08:05.938Z,23.90
2019-05-20T06:10:35.983Z,26.43
2019-05-20T06:13:05.616Z,30.77
2019-05-20T06:15:34.822Z,27.10
2019-05-20T06:18:04.194Z,24.67
2019-05-20T06:20:33.377Z,24.43
2019-05-20T06:23:02.578Z,22.67
2019-05-20T06:25:31.884Z,21.57
2019-05-20T06:28:01.052Z,18.67
2019-05-20T06:30:39.067Z,19.63
2019-05-20T06:33:08.422Z,23.27
2019-05-20T06:35:37.605Z,22.90
2019-05-20T06:38:11.211Z,21.97
2019-05-20T06:40:40.470Z,24.83
2019-05-20T06:43:09.667Z,20.10
2019-05-20T06:45:38.852Z,17.63
2019-05-20T06:48:08.063Z,17.67
2019-05-20T06:50:37.248Z,15.93
2019-05-20T06:53:06.432Z,16.00
2019-05-20T06:55:35.640Z,16.07
2019-05-20T06:58:05.609Z,15.93
2019-05-20T07:00:39.317Z,16.03
2019-05-20T07:03:08.503Z,14.53
2019-05-20T07:05:37.685Z,14.30
2019-05-20T07:08:06.871Z,13.60
2019-05-20T07:10:36.064Z,16.17
2019-05-20T07:13:05.260Z,14.67
2019-05-20T07:15:34.518Z,13.33
2019-05-20T07:18:03.725Z,12.40
2019-05-20T07:20:32.985Z,12.17
2019-05-20T07:23:02.172Z,13.97
2019-05-20T07:25:31.481Z,14.20
2019-05-20T07:28:00.667Z,12.33
2019-05-20T07:30:29.931Z,10.53
2019-05-20T07:32:59.145Z,12.50
2019-05-20T07:35:30.807Z,13.10
2019-05-20T07:37:59.240Z,10.63
2019-05-20T07:40:33.273Z,11.47
2019-05-20T07:43:02.810Z,12.47
2019-05-20T07:45:34.733Z,11.83
2019-05-20T07:48:05.337Z,12.97
2019-05-20T07:50:37.703Z,12.83
2019-05-20T07:53:08.840Z,16.00
2019-05-20T07:56:00.488Z,13.27
2019-05-20T07:58:33.693Z,13.03
2019-05-20T08:01:03.241Z,13.80
2019-05-20T08:03:32.518Z,12.50
2019-05-20T08:06:01.717Z,13.23
2019-05-20T08:08:31.329Z,13.30
2019-05-20T08:11:00.507Z,15.73
2019-05-20T08:13:29.756Z,12.23
2019-05-20T08:15:58.951Z,14.00
2019-05-20T08:18:28.152Z,12.00
2019-05-20T08:20:57.353Z,14.13
2019-05-20T08:23:26.547Z,13.43
2019-05-20T08:25:55.747Z,12.53
2019-05-20T08:28:24.996Z,12.50
2019-05-20T08:30:54.175Z,12.80
2019-05-20T08:33:23.368Z,13.60
2019-05-20T08:35:52.554Z,15.07
2019-05-20T08:38:21.762Z,14.37
2019-05-20T08:40:50.947Z,11.03
2019-05-20T08:43:20.127Z,9.97
2019-05-20T08:45:49.375Z,11.50
2019-05-20T08:48:18.660Z,13.53
2019-05-20T08:50:47.856Z,10.00
2019-05-20T08:53:17.042Z,10.23
2019-05-20T08:55:46.286Z,10.00
2019-05-20T08:58:15.404Z,8.87
2019-05-20T09:00:44.737Z,8.20
2019-05-20T09:03:13.972Z,15.53
2019-05-20T09:05:43.154Z,11.80
2019-05-20T09:08:12.374Z,13.57
2019-05-20T09:10:41.644Z,14.27
2019-05-20T09:13:10.879Z,12.17
2019-05-20T09:15:40.078Z,13.53
2019-05-20T09:18:09.268Z,12.70
2019-05-20T09:20:38.376Z,11.57
2019-05-20T09:23:07.568Z,14.03
2019-05-20T09:25:36.750Z,13.23
2019-05-20T09:28:06.141Z,11.93
2019-05-20T09:30:35.344Z,13.17
2019-05-20T09:33:04.665Z,14.57
2019-05-20T09:35:33.903Z,15.27
2019-05-20T09:38:17.758Z,12.53
2019-05-20T09:40:42.828Z,12.13
2019-05-20T09:43:12.029Z,13.70
2019-05-20T09:45:41.246Z,12.60
2019-05-20T09:48:10.953Z,9.73
2019-05-20T09:50:40.271Z,12.17
2019-05-20T09:53:09.805Z,11.83
2019-05-20T09:55:39.097Z,10.57
2019-05-20T09:58:08.581Z,9.27
2019-05-20T10:00:38.151Z,9.40
2019-05-20T10:03:07.831Z,9.77
2019-05-20T10:05:37.783Z,8.60
2019-05-20T10:08:07.634Z,12.70
2019-05-20T10:10:37.220Z,11.30
2019-05-20T10:13:07.071Z,9.00
2019-05-20T10:15:36.963Z,9.90
2019-05-20T10:18:06.207Z,10.37
2019-05-20T10:20:35.480Z,11.67
2019-05-20T10:23:04.878Z,11.70
2019-05-20T10:25:33.998Z,10.73
2019-05-20T10:28:03.258Z,13.50
2019-05-20T10:30:32.602Z,12.97
2019-05-20T10:33:01.816Z,13.80
2019-05-20T10:35:30.992Z,15.83
2019-05-20T10:38:00.253Z,16.43
2019-05-20T10:40:29.403Z,14.60
2019-05-20T10:42:58.619Z,17.97
2019-05-20T10:45:27.844Z,18.57
2019-05-20T10:47:57.058Z,15.80
2019-05-20T10:50:26.230Z,19.77
2019-05-20T10:52:55.423Z,17.77
2019-05-20T10:55:24.620Z,15.30
2019-05-20T10:57:53.802Z,19.27
2019-05-20T11:00:23.253Z,18.57
2019-05-20T11:02:52.455Z,17.73
2019-05-20T11:05:21.691Z,16.93
2019-05-20T11:07:50.823Z,16.73
2019-05-20T11:10:20.153Z,21.93
2019-05-20T11:12:49.433Z,22.40
2019-05-20T11:15:19.182Z,21.17
2019-05-20T11:17:48.360Z,24.13
2019-05-20T11:20:18.403Z,20.90
2019-05-20T11:22:47.613Z,24.20
2019-05-20T11:25:17.062Z,21.10
2019-05-20T11:27:46.246Z,23.27
2019-05-20T11:30:16.500Z,23.00
2019-05-20T11:32:45.686Z,22.77
2019-05-20T11:35:15.141Z,23.33
2019-05-20T11:37:44.365Z,23.47
2019-05-20T11:40:14.892Z,24.87
2019-05-20T11:42:44.291Z,25.73
2019-05-20T11:45:15.726Z,24.00
2019-05-20T11:47:44.926Z,22.23
2019-05-20T11:50:14.867Z,25.83
2019-05-20T11:52:44.184Z,28.33
2019-05-20T11:55:13.861Z,26.33
2019-05-20T11:57:43.073Z,26.33
2019-05-20T12:00:13.457Z,25.13
2019-05-20T12:02:42.626Z,25.93
2019-05-20T12:05:12.272Z,27.73
2019-05-20T12:07:41.504Z,24.30
2019-05-20T12:10:11.315Z,24.00
2019-05-20T12:12:40.564Z,23.80
2019-05-20T12:15:10.498Z,24.20
2019-05-20T12:17:39.758Z,28.37
2019-05-20T12:20:11.454Z,27.27
2019-05-20T12:22:40.101Z,26.70
2019-05-20T12:25:10.541Z,28.70
2019-05-20T12:27:39.725Z,26.03
2019-05-20T12:30:09.772Z,28.30
2019-05-20T12:32:39.033Z,25.00
2019-05-20T12:35:09.746Z,26.50
2019-05-20T12:37:39.062Z,25.47
2019-05-20T12:40:09.740Z,28.63
2019-05-20T12:42:38.922Z,33.60
2019-05-20T12:45:09.657Z,27.27
2019-05-20T12:47:40.378Z,25.50
2019-05-20T12:50:11.105Z,26.47
2019-05-20T12:52:41.594Z,28.90
2019-05-20T12:55:10.871Z,26.27
2019-05-20T12:57:40.089Z,25.20
2019-05-20T13:00:12.376Z,27.57
2019-05-20T13:02:42.616Z,30.97
2019-05-20T13:05:12.410Z,28.40
2019-05-20T13:07:41.573Z,26.80
2019-05-20T13:10:27.933Z,32.83
2019-05-20T13:12:42.539Z,35.53
2019-05-20T13:15:12.456Z,32.97
2019-05-20T13:17:44.617Z,33.83
2019-05-20T13:20:12.841Z,27.73
2019-05-20T13:22:42.051Z,28.80
2019-05-20T13:25:11.879Z,27.63
2019-05-20T13:27:41.056Z,29.40
2019-05-20T13:30:10.979Z,30.20
2019-05-20T13:32:40.175Z,31.30
2019-05-20T13:35:10.123Z,27.43
2019-05-20T13:37:39.228Z,36.03
2019-05-20T13:40:09.270Z,29.13
2019-05-20T13:42:38.468Z,33.10
2019-05-20T13:45:08.995Z,27.83
2019-05-20T13:47:38.204Z,34.13
2019-05-20T13:50:08.175Z,36.83
2019-05-20T13:52:39.297Z,29.77
2019-05-20T13:55:08.900Z,33.67
2019-05-20T13:57:38.318Z,33.10
2019-05-20T14:00:08.459Z,27.40
2019-05-20T14:02:37.642Z,28.00
2019-05-20T14:05:06.891Z,28.53
2019-05-20T14:07:36.155Z,32.57
2019-05-20T14:10:07.333Z,35.13
2019-05-20T14:12:36.517Z,34.23
2019-05-20T14:15:06.678Z,35.60
2019-05-20T14:17:35.927Z,39.73
2019-05-20T14:20:06.174Z,36.83
2019-05-20T14:22:35.361Z,33.87
2019-05-20T14:25:07.503Z,40.07
2019-05-20T14:27:36.711Z,37.63
2019-05-20T14:30:10.215Z,41.97
2019-05-20T14:32:39.448Z,39.67
2019-05-20T14:35:09.155Z,42.30
2019-05-20T14:37:38.357Z,36.50
2019-05-20T14:40:08.022Z,38.17
2019-05-20T14:42:37.197Z,45.73
2019-05-20T14:45:06.932Z,43.33
2019-05-20T14:47:36.036Z,54.40
2019-05-20T14:50:09.539Z,45.67
2019-05-20T14:52:38.782Z,48.10
2019-05-20T14:55:08.116Z,45.37
2019-05-20T14:57:37.876Z,44.80
2019-05-20T15:00:08.248Z,46.47
2019-05-20T15:02:37.393Z,46.43
2019-05-20T15:05:08.740Z,48.67
2019-05-20T15:07:37.852Z,46.97
2019-05-20T15:10:10.213Z,44.73
2019-05-20T15:12:39.479Z,52.07
2019-05-20T15:15:09.598Z,46.33
2019-05-20T15:17:38.900Z,47.27
2019-05-20T15:20:09.120Z,44.40
2019-05-20T15:22:38.315Z,39.33
2019-05-20T15:25:08.642Z,42.97
2019-05-20T15:27:37.830Z,41.87
2019-05-20T15:30:09.083Z,33.47
2019-05-20T15:32:38.658Z,36.43
2019-05-20T15:35:08.700Z,30.77
2019-05-20T15:37:38.900Z,35.57
2019-05-20T15:40:08.646Z,33.83
2019-05-20T15:42:37.914Z,29.53
2019-05-20T15:45:09.060Z,27.50
2019-05-20T15:47:38.335Z,24.00
2019-05-20T15:50:10.165Z,26.67
2019-05-20T15:52:38.895Z,24.63
2019-05-20T15:55:08.233Z,22.10
2019-05-20T15:57:37.410Z,21.13
2019-05-20T16:00:08.006Z,19.63
2019-05-20T16:02:37.546Z,17.83
2019-05-20T16:05:07.785Z,20.90
2019-05-20T16:07:36.966Z,16.20
2019-05-20T16:10:06.900Z,15.07
2019-05-20T16:12:36.155Z,17.43
2019-05-20T16:15:07.252Z,18.57
2019-05-20T16:17:36.516Z,20.17
2019-05-20T16:20:07.373Z,16.73
2019-05-20T16:22:36.676Z,17.60
2019-05-20T16:25:07.432Z,20.40
2019-05-20T16:27:36.629Z,16.70
2019-05-20T16:30:07.979Z,17.60
2019-05-20T16:32:37.163Z,21.43
2019-05-20T16:35:07.105Z,18.67
2019-05-20T16:37:36.657Z,17.57
2019-05-20T16:40:08.097Z,18.07
2019-05-20T16:42:37.296Z,16.93
2019-05-20T16:45:11.587Z,23.10
2019-05-20T16:47:39.481Z,17.37
2019-05-20T16:50:10.088Z,18.57
2019-05-20T16:52:39.595Z,16.83
2019-05-20T16:55:11.192Z,21.37
2019-05-20T16:57:40.369Z,22.67
2019-05-20T17:00:29.138Z,23.20
2019-05-20T17:02:41.154Z,22.93
2019-05-20T17:05:11.604Z,25.63
2019-05-20T17:07:40.802Z,23.50
2019-05-20T17:10:10.643Z,24.37
2019-05-20T17:12:39.842Z,31.40
2019-05-20T17:15:11.147Z,26.87
2019-05-20T17:17:40.381Z,22.40
2019-05-20T17:20:09.809Z,25.60
2019-05-20T17:22:39.009Z,24.47
2019-05-20T17:25:08.879Z,23.30
2019-05-20T17:27:38.084Z,22.00
2019-05-20T17:30:08.624Z,21.13
2019-05-20T17:32:37.881Z,26.00
2019-05-20T17:35:07.502Z,21.97
2019-05-20T17:37:36.803Z,27.13
2019-05-20T17:40:08.181Z,24.73
2019-05-20T17:42:37.438Z,24.87
2019-05-20T17:45:07.879Z,23.90
2019-05-20T17:47:37.132Z,22.07
2019-05-20T17:50:08.623Z,23.50
2019-05-20T17:52:37.886Z,24.10
2019-05-20T17:55:07.324Z,25.03
2019-05-20T17:57:36.793Z,26.23
2019-05-20T18:00:09.786Z,22.17
2019-05-20T18:02:38.995Z,22.93
2019-05-20T18:05:08.722Z,21.70
2019-05-20T18:07:37.927Z,19.17
2019-05-20T18:10:08.341Z,22.47
2019-05-20T18:12:37.537Z,25.40
2019-05-20T18:15:07.948Z,19.87
2019-05-20T18:17:37.143Z,25.97
2019-05-20T18:20:07.656Z,22.93
2019-05-20T18:22:36.866Z,19.77
2019-05-20T18:25:08.603Z,18.53
2019-05-20T18:27:38.884Z,18.27
2019-05-20T18:30:09.262Z,18.80
2019-05-20T18:32:38.778Z,16.67
2019-05-20T18:35:09.277Z,17.80
2019-05-20T18:37:38.494Z,19.60
2019-05-20T18:40:13.889Z,16.40
2019-05-20T18:42:39.789Z,17.00
2019-05-20T18:45:09.232Z,21.27
2019-05-20T18:47:38.429Z,19.90
2019-05-20T18:50:08.369Z,23.57
2019-05-20T18:52:37.607Z,26.00
2019-05-20T18:55:07.953Z,24.33
2019-05-20T18:57:37.126Z,25.17
2019-05-20T19:00:08.651Z,25.23
2019-05-20T19:02:37.879Z,23.53
2019-05-20T19:05:08.777Z,24.17
2019-05-20T19:07:37.974Z,26.63
2019-05-20T19:10:07.487Z,22.70
2019-05-20T19:12:36.722Z,19.77
2019-05-20T19:15:07.822Z,29.77
2019-05-20T19:17:37.679Z,25.10
2019-05-20T19:20:07.125Z,24.63
2019-05-20T19:22:36.376Z,23.90
2019-05-20T19:25:06.875Z,26.53
2019-05-20T19:27:36.485Z,29.13
2019-05-20T19:30:06.640Z,24.30
2019-05-20T19:32:35.816Z,27.33
2019-05-20T19:35:08.991Z,29.40
2019-05-20T19:37:38.197Z,32.83
2019-05-20T19:40:08.769Z,34.70
2019-05-20T19:42:38.534Z,31.77
2019-05-20T19:45:08.237Z,25.20
2019-05-20T19:47:37.441Z,26.77
2019-05-20T19:50:07.809Z,27.67
2019-05-20T19:52:37.000Z,32.07
2019-05-20T19:55:07.071Z,28.50
2019-05-20T19:57:36.321Z,27.13
2019-05-20T20:00:09.200Z,34.87
2019-05-20T20:02:39.334Z,30.67
2019-05-20T20:05:08.857Z,29.67
2019-05-20T20:07:38.124Z,30.00
2019-05-20T20:10:07.477Z,26.17
2019-05-20T20:12:36.773Z,25.43
2019-05-20T20:15:11.064Z,26.60
2019-05-20T20:17:40.255Z,30.93
2019-05-20T20:20:09.639Z,32.97
2019-05-20T20:22:38.816Z,31.50
2019-05-20T20:25:08.151Z,29.70
2019-05-20T20:27:37.947Z,33.90
2019-05-20T20:30:07.492Z,33.60
2019-05-20T20:32:38.683Z,33.10
2019-05-20T20:35:08.541Z,33.00
2019-05-20T20:37:37.743Z,34.80
2019-05-20T20:40:07.785Z,33.53
2019-05-20T20:42:37.004Z,36.40
2019-05-20T20:45:06.468Z,37.43
2019-05-20T20:47:41.893Z,37.17
2019-05-20T20:50:07.149Z,45.73
2019-05-20T20:52:36.334Z,36.90
2019-05-20T20:55:06.799Z,43.90
2019-05-20T20:57:36.348Z,38.77
2019-05-20T21:00:10.053Z,37.83
2019-05-20T21:02:52.224Z,43.53
2019-05-20T21:05:18.260Z,43.47
2019-05-20T21:07:51.328Z,45.20
2019-05-20T21:10:19.337Z,39.73
2019-05-20T21:12:48.555Z,38.97
2019-05-20T21:15:17.760Z,39.83
2019-05-20T21:17:46.950Z,47.27
2019-05-20T21:20:16.149Z,34.20
2019-05-20T21:22:45.381Z,35.13
2019-05-20T21:25:14.672Z,34.17
2019-05-20T21:27:43.868Z,34.87
2019-05-20T21:30:13.361Z,35.90
2019-05-20T21:32:42.592Z,36.70
2019-05-20T21:35:11.943Z,38.70
2019-05-20T21:37:41.097Z,33.57
2019-05-20T21:40:11.451Z,34.40
2019-05-20T21:42:40.639Z,31.87
2019-05-20T21:45:10.157Z,28.17
2019-05-20T21:47:39.357Z,33.10
2019-05-20T21:50:08.665Z,32.57
2019-05-20T21:52:37.880Z,37.27
2019-05-20T21:55:07.506Z,35.40
2019-05-20T21:57:36.686Z,42.97
2019-05-20T22:00:11.272Z,39.17
2019-05-20T22:02:40.591Z,31.37
2019-05-20T22:05:09.954Z,32.27
2019-05-20T22:07:39.182Z,33.20
2019-05-20T22:10:09.022Z,39.87
2019-05-20T22:12:38.216Z,33.43
2019-05-20T22:15:09.425Z,33.07
2019-05-20T22:17:38.608Z,35.90
2019-05-20T22:20:07.881Z,27.57
2019-05-20T22:22:38.721Z,34.70
2019-05-20T22:25:08.022Z,35.10
2019-05-20T22:27:37.269Z,29.33
2019-05-20T22:30:08.559Z,25.50
2019-05-20T22:32:37.756Z,31.40
2019-05-20T22:35:07.688Z,28.43
2019-05-20T22:37:36.897Z,28.90
2019-05-20T22:40:07.237Z,27.40
2019-05-20T22:42:36.432Z,32.60
2019-05-20T22:45:06.177Z,36.40
2019-05-20T22:47:35.376Z,32.63
2019-05-20T22:50:05.467Z,28.13
2019-05-20T22:52:34.721Z,32.63
2019-05-20T22:55:05.061Z,30.90
2019-05-20T22:57:34.240Z,32.10
2019-05-20T23:00:04.584Z,29.70
2019-05-20T23:02:33.799Z,29.57
2019-05-20T23:05:02.987Z,26.57
2019-05-20T23:07:32.185Z,29.00
2019-05-20T23:10:01.383Z,29.90
2019-05-20T23:12:30.583Z,30.40
2019-05-20T23:14:59.859Z,29.17
2019-05-20T23:17:29.124Z,25.17
2019-05-20T23:19:58.352Z,24.97
2019-05-20T23:22:27.567Z,21.10
2019-05-20T23:24:56.775Z,24.57
2019-05-20T23:27:25.984Z,24.07
2019-05-20T23:29:55.173Z,20.50
2019-05-20T23:32:24.365Z,19.43
2019-05-20T23:34:53.555Z,23.90
2019-05-20T23:37:22.774Z,23.80
2019-05-20T23:39:51.969Z,19.77
2019-05-20T23:42:21.166Z,19.43
2019-05-20T23:44:53.087Z,21.23
2019-05-20T23:47:24.223Z,27.57
2019-05-20T23:49:53.433Z,23.13
2019-05-20T23:52:22.629Z,21.37
2019-05-20T23:54:51.935Z,20.37
2019-05-20T23:57:22.154Z,17.60
2019-05-20T23:59:51.336Z,16.70
